Terminal Aerodrome Forecast
Issued by NWS

Home | Current Version | Previous Version | Text Only | Print | Product List | Glossary On
Versions: 1 2 3 4 5 6 7 8 9 10 11 12 13 14 15 16
000
FTUS43 KTOP 252327
TAFMHK
TAF
KMHK 252327Z 2600/2624 03005KT P6SM SHRA VCTS OVC060CB
      TEMPO 2603/2607 3SM TSRA OVC025CB
     FM260700 36009KT P6SM -SHRA VCTS OVC025CB
      TEMPO 2607/2609 3SM TSRA OVC012CB
     FM260900 36009KT 4SM -SHRA VCTS SCT007 BKN015CB=

USA.gov is the U.S. government's official web portal to all federal, state and local government web resources and services.